createdAt,value
2023-05-22T03:59:54.779Z,100420.19
2023-05-22T04:02:58.747Z,100420.19
2023-05-22T04:06:01.483Z,100415.81
2023-05-22T04:09:04.478Z,100418.66
2023-05-22T04:12:07.454Z,100419.59
2023-05-22T04:15:09.835Z,100422.50
2023-05-22T04:18:12.794Z,100416.09
2023-05-22T04:21:17.453Z,100418.78
2023-05-22T04:24:23.050Z,100423.19
2023-05-22T04:27:26.387Z,100424.44
2023-05-22T04:30:28.864Z,100428.72
2023-05-22T04:33:34.190Z,100420.59
2023-05-22T04:36:36.622Z,100421.97
2023-05-22T04:39:40.312Z,100422.09
2023-05-22T04:42:43.009Z,100421.31
2023-05-22T04:45:45.196Z,100429.34
2023-05-22T04:48:48.348Z,100424.38
2023-05-22T04:51:51.163Z,100429.28
2023-05-22T04:54:54.505Z,100440.03
2023-05-22T04:57:57.093Z,100433.69
2023-05-22T05:00:59.642Z,100433.50
2023-05-22T05:04:03.836Z,100435.06
2023-05-22T05:07:06.953Z,100436.66
2023-05-22T05:10:10.219Z,100445.97
2023-05-22T05:13:12.690Z,100438.50
2023-05-22T05:16:15.028Z,100444.84
2023-05-22T05:19:21.704Z,100447.34
2023-05-22T05:22:24.122Z,100451.63
2023-05-22T05:25:26.980Z,100448.84
2023-05-22T05:28:29.247Z,100447.37
2023-05-22T05:31:33.404Z,100441.28
2023-05-22T05:34:36.465Z,100438.00
2023-05-22T05:37:39.068Z,100438.66
2023-05-22T05:40:42.015Z,100442.72
2023-05-22T05:43:44.745Z,100462.25
2023-05-22T05:46:47.214Z,100465.28
2023-05-22T05:49:50.605Z,100462.19
2023-05-22T05:52:54.526Z,100463.56
2023-05-22T05:55:57.802Z,100458.16
2023-05-22T05:59:02.024Z,100463.94
2023-05-22T06:02:05.655Z,100459.03
2023-05-22T06:05:09.161Z,100456.84
2023-05-22T06:08:13.721Z,100463.53
2023-05-22T06:11:16.957Z,100458.31
2023-05-22T06:14:24.003Z,100458.59
2023-05-22T06:17:27.233Z,100455.38
2023-05-22T06:20:29.692Z,100462.38
2023-05-22T06:23:32.593Z,100457.00
2023-05-22T06:26:35.264Z,100457.28
2023-05-22T06:29:38.249Z,100459.06
2023-05-22T06:32:42.199Z,100454.69
2023-05-22T06:35:45.756Z,100452.84
2023-05-22T06:38:49.531Z,100458.28
2023-05-22T06:41:53.504Z,100450.72
2023-05-22T06:44:55.695Z,100461.25
2023-05-22T06:47:59.813Z,100451.06
2023-05-22T06:51:02.405Z,100454.44
2023-05-22T06:54:07.185Z,100451.13
2023-05-22T06:57:11.118Z,100463.87
2023-05-22T07:00:14.690Z,100458.25
2023-05-22T07:03:17.348Z,100455.00
2023-05-22T07:06:20.753Z,100458.25
2023-05-22T07:09:23.234Z,100454.28
2023-05-22T07:12:28.540Z,100461.13
2023-05-22T07:15:30.861Z,100456.31
2023-05-22T07:18:34.038Z,100464.31
2023-05-22T07:21:36.547Z,100464.84
2023-05-22T07:24:52.093Z,100468.47
2023-05-22T07:27:55.836Z,100463.78
2023-05-22T07:31:00.130Z,100459.81
2023-05-22T07:34:02.874Z,100460.09
2023-05-22T07:37:11.278Z,100449.91
2023-05-22T07:40:14.317Z,100454.03
2023-05-22T07:43:17.003Z,100449.44
2023-05-22T07:46:20.239Z,100452.72
2023-05-22T07:49:26.332Z,100455.06
2023-05-22T07:52:28.726Z,100451.91
2023-05-22T07:55:31.604Z,100461.59
2023-05-22T07:58:34.816Z,100453.94
2023-05-22T08:01:38.622Z,100462.12
2023-05-22T08:04:41.204Z,100463.28
2023-05-22T08:07:43.458Z,100469.62
2023-05-22T08:10:58.161Z,100463.97
2023-05-22T08:14:05.610Z,100456.47
2023-05-22T08:17:08.907Z,100459.75
2023-05-22T08:20:12.007Z,100452.28
2023-05-22T08:23:14.684Z,100457.13
2023-05-22T08:26:17.134Z,100453.34
2023-05-22T08:29:19.692Z,100448.56
2023-05-22T08:32:22.082Z,100456.56
2023-05-22T08:35:24.559Z,100453.22
2023-05-22T08:38:26.765Z,100451.38
2023-05-22T08:41:29.970Z,100453.91
2023-05-22T08:44:32.458Z,100459.62
2023-05-22T08:47:37.617Z,100461.44
2023-05-22T08:50:43.159Z,100454.22
2023-05-22T08:53:46.267Z,100455.03
2023-05-22T08:56:56.202Z,100451.94
2023-05-22T09:00:00.246Z,100450.59
2023-05-22T09:03:03.066Z,100457.75
2023-05-22T09:06:09.363Z,100447.78
2023-05-22T09:09:12.452Z,100449.56
2023-05-22T09:12:15.292Z,100435.22
2023-05-22T09:15:20.396Z,100442.31
2023-05-22T09:18:27.083Z,100450.13
2023-05-22T09:21:30.679Z,100440.87
2023-05-22T09:24:43.429Z,100441.69
2023-05-22T09:27:46.584Z,100445.00
2023-05-22T09:30:53.842Z,100446.00
2023-05-22T09:33:56.385Z,100443.13
2023-05-22T09:37:03.316Z,100450.31
2023-05-22T09:40:06.981Z,100446.78
2023-05-22T09:43:10.452Z,100443.13
2023-05-22T09:46:16.549Z,100439.31
2023-05-22T09:49:19.074Z,100438.09
2023-05-22T09:52:23.326Z,100432.78
2023-05-22T09:55:27.118Z,100434.34
2023-05-22T09:58:33.465Z,100429.59
2023-05-22T10:01:38.639Z,100428.22
2023-05-22T10:04:42.527Z,100431.88
2023-05-22T10:07:55.118Z,100433.06
2023-05-22T10:10:58.634Z,100433.78
2023-05-22T10:14:03.893Z,100429.47
2023-05-22T10:17:07.155Z,100435.06
2023-05-22T10:20:10.408Z,100432.84
2023-05-22T10:23:15.214Z,100428.44
2023-05-22T10:26:18.033Z,100419.81
2023-05-22T10:29:36.394Z,100418.94
2023-05-22T10:32:47.846Z,100416.25
2023-05-22T10:35:55.292Z,100408.72
2023-05-22T10:38:57.664Z,100411.38
2023-05-22T10:42:00.128Z,100397.25
2023-05-22T10:45:04.301Z,100390.44
2023-05-22T10:48:08.897Z,100399.94
2023-05-22T10:51:18.081Z,100388.12
2023-05-22T10:54:38.803Z,100383.84
2023-05-22T10:57:42.015Z,100380.97
2023-05-22T11:00:45.031Z,100376.34
2023-05-22T11:04:01.420Z,100374.28
2023-05-22T11:07:06.736Z,100378.06
2023-05-22T11:10:09.184Z,100371.22
2023-05-22T11:13:12.381Z,100369.09
2023-05-22T11:16:16.045Z,100374.44
2023-05-22T11:19:23.674Z,100357.22
2023-05-22T11:22:33.380Z,100362.09
2023-05-22T11:25:37.578Z,100354.91
2023-05-22T11:28:40.090Z,100355.28
2023-05-22T11:31:42.790Z,100348.44
2023-05-22T11:34:47.790Z,100345.34
2023-05-22T11:37:53.276Z,100349.19
2023-05-22T11:40:56.508Z,100345.97
2023-05-22T11:44:00.275Z,100344.50
2023-05-22T11:47:02.606Z,100348.59
2023-05-22T11:50:06.814Z,100335.59
2023-05-22T11:53:09.183Z,100339.06
2023-05-22T11:56:13.656Z,100337.56
2023-05-22T11:59:16.527Z,100333.94
2023-05-22T12:02:20.273Z,100327.63
2023-05-22T12:05:22.688Z,100327.31
2023-05-22T12:08:25.538Z,100326.97
2023-05-22T12:11:28.126Z,100321.34
2023-05-22T12:14:31.459Z,100319.50
2023-05-22T12:17:36.492Z,100319.34
2023-05-22T12:20:43.426Z,100315.72
2023-05-22T12:23:52.355Z,100309.94
2023-05-22T12:26:55.773Z,100311.16
2023-05-22T12:29:58.804Z,100301.37
2023-05-22T12:33:01.143Z,100304.59
2023-05-22T12:36:07.731Z,100296.84
2023-05-22T12:39:11.213Z,100290.69
2023-05-22T12:42:13.652Z,100288.75
2023-05-22T12:45:17.689Z,100286.00
2023-05-22T12:48:20.315Z,100282.69
2023-05-22T12:51:24.106Z,100271.31
2023-05-22T12:54:27.265Z,100262.41
2023-05-22T12:57:29.880Z,100260.19
2023-05-22T13:00:32.530Z,100260.94
2023-05-22T13:03:34.791Z,100258.69
2023-05-22T13:06:37.248Z,100249.97
2023-05-22T13:09:39.399Z,100249.66
2023-05-22T13:12:43.067Z,100249.19
2023-05-22T13:15:45.783Z,100241.47
2023-05-22T13:18:48.391Z,100242.25
2023-05-22T13:21:50.598Z,100230.44
2023-05-22T13:24:53.257Z,100219.56
2023-05-22T13:27:55.586Z,100235.31
2023-05-22T13:30:58.164Z,100232.25
2023-05-22T13:34:02.943Z,100230.41
2023-05-22T13:37:05.736Z,100222.94
2023-05-22T13:40:08.784Z,100223.34
2023-05-22T13:43:11.365Z,100217.84
2023-05-22T13:46:13.625Z,100213.53
2023-05-22T13:49:16.059Z,100224.13
2023-05-22T13:52:18.164Z,100211.28
2023-05-22T13:55:20.998Z,100210.47
2023-05-22T13:58:23.179Z,100209.66
2023-05-22T14:01:25.837Z,100207.00
2023-05-22T14:04:28.341Z,100209.75
2023-05-22T14:07:30.465Z,100203.13
2023-05-22T14:10:34.350Z,100210.19
2023-05-22T14:13:36.547Z,100201.94
2023-05-22T14:16:39.172Z,100201.25
2023-05-22T14:19:41.381Z,100197.69
2023-05-22T14:22:57.248Z,100196.53
2023-05-22T14:26:00.528Z,100190.31
2023-05-22T14:29:03.016Z,100191.88
2023-05-22T14:32:05.686Z,100193.91
2023-05-22T14:35:08.473Z,100192.31
2023-05-22T14:38:10.658Z,100187.97
2023-05-22T14:41:13.411Z,100190.38
2023-05-22T14:44:15.725Z,100188.81
2023-05-22T14:47:18.185Z,100177.75
2023-05-22T14:50:20.986Z,100187.19
2023-05-22T14:53:23.740Z,100186.34
2023-05-22T14:56:26.526Z,100180.81
2023-05-22T14:59:28.968Z,100174.12
2023-05-22T15:02:31.223Z,100180.78
2023-05-22T15:05:33.731Z,100180.34
